createdAt,value
2023-01-21T00:00:04.824Z,0.00
2023-01-21T00:01:04.651Z,0.00
2023-01-21T00:02:04.355Z,0.00
2023-01-21T00:03:04.552Z,0.00
2023-01-21T00:04:04.415Z,0.00
2023-01-21T00:05:04.554Z,0.00
2023-01-21T00:06:04.425Z,0.00
2023-01-21T00:07:04.629Z,0.00
2023-01-21T00:08:04.282Z,0.00
2023-01-21T00:09:04.283Z,0.00
2023-01-21T00:10:04.310Z,0.00
2023-01-21T00:11:04.348Z,0.00
2023-01-21T00:12:04.265Z,0.00
2023-01-21T00:13:04.296Z,0.00
2023-01-21T00:14:04.271Z,0.00
2023-01-21T00:15:04.279Z,0.00
2023-01-21T00:16:04.324Z,0.00
2023-01-21T00:17:04.651Z,0.00
2023-01-21T00:18:04.229Z,0.00
2023-01-21T00:19:04.515Z,0.00
2023-01-21T00:20:04.525Z,0.00
2023-01-21T00:21:04.520Z,0.00
2023-01-21T00:22:04.332Z,0.00
2023-01-21T00:23:04.543Z,0.00
2023-01-21T00:24:04.551Z,0.00
2023-01-21T00:25:04.225Z,0.00
2023-01-21T00:26:04.227Z,0.00
2023-01-21T00:27:04.215Z,0.00
2023-01-21T00:28:04.225Z,0.00
2023-01-21T00:29:04.157Z,0.00
2023-01-21T00:30:04.177Z,0.00
2023-01-21T00:31:04.339Z,0.00
2023-01-21T00:32:04.255Z,0.00
2023-01-21T00:33:04.133Z,0.00
2023-01-21T00:34:04.133Z,0.00
2023-01-21T00:35:04.151Z,0.00
2023-01-21T00:36:04.143Z,0.00
2023-01-21T00:37:04.104Z,0.00
2023-01-21T00:38:04.172Z,0.00
2023-01-21T00:39:04.182Z,0.00
2023-01-21T00:40:04.211Z,0.00
2023-01-21T00:41:04.157Z,0.00
2023-01-21T00:42:04.072Z,0.00
2023-01-21T00:43:04.230Z,0.00
2023-01-21T00:44:04.132Z,0.00
2023-01-21T00:45:04.269Z,0.00
2023-01-21T00:46:04.107Z,0.00
2023-01-21T00:47:04.037Z,0.00
2023-01-21T00:48:04.087Z,0.00
2023-01-21T00:49:04.108Z,0.00
2023-01-21T00:50:04.116Z,0.00
2023-01-21T00:51:04.134Z,0.00
2023-01-21T00:52:04.116Z,0.00
2023-01-21T00:53:04.118Z,0.00
2023-01-21T00:54:04.203Z,0.00
2023-01-21T00:55:04.342Z,0.00
2023-01-21T00:56:04.016Z,0.00
2023-01-21T00:57:04.174Z,0.00
2023-01-21T00:58:04.375Z,0.00
2023-01-21T00:59:04.460Z,0.00
2023-01-21T01:00:04.462Z,0.00
2023-01-21T01:01:04.373Z,0.00
2023-01-21T01:02:04.257Z,0.00
2023-01-21T01:03:03.977Z,0.00
2023-01-21T01:04:04.602Z,0.00
2023-01-21T01:05:05.423Z,0.00
2023-01-21T01:06:04.079Z,0.00
2023-01-21T01:07:04.418Z,0.00
2023-01-21T01:08:04.563Z,0.00
2023-01-21T01:09:03.929Z,0.00
2023-01-21T01:10:04.239Z,0.00
2023-01-21T01:11:04.033Z,0.00
2023-01-21T01:12:04.322Z,0.00
2023-01-21T01:13:03.889Z,0.00
2023-01-21T01:14:04.078Z,0.00
2023-01-21T01:15:03.973Z,0.00
2023-01-21T01:16:04.181Z,0.00
2023-01-21T01:17:03.910Z,0.00
2023-01-21T01:18:04.683Z,0.00
2023-01-21T01:19:03.881Z,0.00
2023-01-21T01:20:04.528Z,0.00
2023-01-21T01:21:03.904Z,0.00
2023-01-21T01:22:04.738Z,0.00
2023-01-21T01:23:04.726Z,0.00
2023-01-21T01:24:03.825Z,0.00
2023-01-21T01:25:03.814Z,0.00
2023-01-21T01:26:03.863Z,0.00
2023-01-21T01:27:03.996Z,0.00
2023-01-21T01:28:03.836Z,0.00
2023-01-21T01:29:03.840Z,0.00
2023-01-21T01:30:03.863Z,0.00
2023-01-21T01:31:03.903Z,0.00
2023-01-21T01:32:04.074Z,0.00
2023-01-21T01:33:03.782Z,0.00
2023-01-21T01:34:03.872Z,0.00
2023-01-21T01:35:03.981Z,0.00
2023-01-21T01:36:04.038Z,0.00
2023-01-21T01:37:04.003Z,0.00
2023-01-21T01:38:04.310Z,0.00
2023-01-21T01:39:03.809Z,0.00
2023-01-21T01:40:03.910Z,0.00
2023-01-21T01:41:04.238Z,0.00
2023-01-21T01:42:03.858Z,0.00
2023-01-21T01:43:04.247Z,0.00
2023-01-21T01:44:04.614Z,0.00
2023-01-21T01:45:03.755Z,0.00
2023-01-21T01:46:04.494Z,0.00
2023-01-21T01:47:03.799Z,0.00
2023-01-21T01:48:04.707Z,0.00
2023-01-21T01:49:04.287Z,0.00
2023-01-21T01:50:04.096Z,0.00
2023-01-21T01:51:04.178Z,0.00
2023-01-21T01:52:04.556Z,0.00
2023-01-21T01:53:04.726Z,0.00
2023-01-21T01:54:04.533Z,0.00
2023-01-21T01:55:03.709Z,0.00
2023-01-21T01:56:04.023Z,0.00
2023-01-21T01:57:04.551Z,0.00
2023-01-21T01:58:04.453Z,0.00
2023-01-21T01:59:03.634Z,0.00
2023-01-21T02:00:03.865Z,0.00
2023-01-21T02:01:04.073Z,0.00
2023-01-21T02:02:04.637Z,0.00
2023-01-21T02:03:03.647Z,0.00
2023-01-21T02:04:04.295Z,0.00
2023-01-21T02:05:03.607Z,0.00
2023-01-21T02:06:04.770Z,0.00
2023-01-21T02:07:03.680Z,0.00
2023-01-21T02:08:03.691Z,0.00
2023-01-21T02:09:03.569Z,0.00
2023-01-21T02:10:03.811Z,0.00
2023-01-21T02:11:03.827Z,0.00
2023-01-21T02:12:03.756Z,0.00
2023-01-21T02:13:03.549Z,0.00
2023-01-21T02:14:03.566Z,0.00
2023-01-21T02:15:03.707Z,0.00
2023-01-21T02:16:04.081Z,0.00
2023-01-21T02:17:04.066Z,0.00
2023-01-21T02:18:04.179Z,0.00
2023-01-21T02:19:04.185Z,0.00
2023-01-21T02:20:03.497Z,0.00
2023-01-21T02:21:03.783Z,0.00
2023-01-21T02:22:04.216Z,0.00
2023-01-21T02:23:03.699Z,0.00
2023-01-21T02:24:04.215Z,0.00
2023-01-21T02:25:03.805Z,0.00
2023-01-21T02:26:03.503Z,0.00
2023-01-21T02:27:03.623Z,0.00
2023-01-21T02:28:04.432Z,0.00
2023-01-21T02:29:03.454Z,0.00
2023-01-21T02:30:03.468Z,0.00
2023-01-21T02:31:03.708Z,0.00
2023-01-21T02:32:03.792Z,0.00
2023-01-21T02:33:04.467Z,0.00
2023-01-21T02:34:04.081Z,0.00
2023-01-21T02:35:04.269Z,0.00
2023-01-21T02:36:04.429Z,0.00
2023-01-21T02:37:04.329Z,0.00
2023-01-21T02:38:03.694Z,0.00
2023-01-21T02:39:03.411Z,0.00
2023-01-21T02:40:04.164Z,0.00
2023-01-21T02:41:03.387Z,0.00
2023-01-21T02:42:03.733Z,0.00
2023-01-21T02:43:03.419Z,0.00
2023-01-21T02:44:03.358Z,0.00
2023-01-21T02:45:03.375Z,0.00
2023-01-21T02:46:03.365Z,0.00
2023-01-21T02:47:03.372Z,0.00
2023-01-21T02:48:03.355Z,0.00
2023-01-21T02:49:03.366Z,0.00
2023-01-21T02:50:03.364Z,0.00
2023-01-21T02:51:03.400Z,0.00
2023-01-21T02:52:03.343Z,0.00
2023-01-21T02:53:03.306Z,0.00
2023-01-21T02:54:03.304Z,0.00
2023-01-21T02:55:03.298Z,0.00
2023-01-21T02:56:03.300Z,0.00
2023-01-21T02:57:03.422Z,0.00
2023-01-21T02:58:03.322Z,0.00
2023-01-21T02:59:03.340Z,0.00
2023-01-21T03:00:03.368Z,0.00
2023-01-21T03:01:03.378Z,0.00
2023-01-21T03:02:03.510Z,0.00
2023-01-21T03:03:03.462Z,0.00
2023-01-21T03:04:03.278Z,0.00
2023-01-21T03:05:03.352Z,0.00
2023-01-21T03:06:03.278Z,0.00
2023-01-21T03:07:03.489Z,0.00
2023-01-21T03:08:03.585Z,0.00
2023-01-21T03:09:03.586Z,0.00
2023-01-21T03:10:03.269Z,0.00
2023-01-21T03:11:03.201Z,0.00
2023-01-21T03:12:03.556Z,0.00
2023-01-21T03:13:03.526Z,0.00
2023-01-21T03:14:03.644Z,0.00
2023-01-21T03:15:03.221Z,0.00
2023-01-21T03:16:03.253Z,0.00
2023-01-21T03:17:03.765Z,0.00
2023-01-21T03:18:03.468Z,0.00
2023-01-21T03:19:03.775Z,0.00
2023-01-21T03:20:03.594Z,0.00
2023-01-21T03:21:03.828Z,0.00
2023-01-21T03:22:03.181Z,0.00
2023-01-21T03:23:03.182Z,0.00
2023-01-21T03:24:04.592Z,0.00
2023-01-21T03:25:03.206Z,0.00
2023-01-21T03:26:03.211Z,0.00
2023-01-21T03:27:03.291Z,0.00
2023-01-21T03:28:03.159Z,0.00
2023-01-21T03:29:03.231Z,0.00
2023-01-21T03:30:03.241Z,0.00
2023-01-21T03:31:03.503Z,0.00
2023-01-21T03:32:03.567Z,0.00
2023-01-21T03:33:03.133Z,0.00
2023-01-21T03:34:03.099Z,0.00
2023-01-21T03:35:03.586Z,0.00
2023-01-21T03:36:03.687Z,0.00
2023-01-21T03:37:03.699Z,0.00
2023-01-21T03:38:03.794Z,0.00
2023-01-21T03:39:03.170Z,0.00
2023-01-21T03:40:03.516Z,0.00
2023-01-21T03:41:03.385Z,0.00
2023-01-21T03:42:03.550Z,0.00
2023-01-21T03:43:03.002Z,0.00
2023-01-21T03:44:03.022Z,0.00
2023-01-21T03:45:03.067Z,0.00
2023-01-21T03:46:03.088Z,0.00
2023-01-21T03:47:03.020Z,0.00
2023-01-21T03:48:02.984Z,0.00
2023-01-21T03:49:03.036Z,0.00
2023-01-21T03:50:03.094Z,0.00
2023-01-21T03:51:04.492Z,0.00
2023-01-21T03:52:02.981Z,0.00
2023-01-21T03:53:02.995Z,0.00
2023-01-21T03:54:02.953Z,0.00
2023-01-21T03:55:02.940Z,0.00
2023-01-21T03:56:03.009Z,0.00
2023-01-21T03:57:03.221Z,0.00
2023-01-21T03:58:03.231Z,0.00
2023-01-21T03:59:02.905Z,0.00
2023-01-21T04:00:02.944Z,0.00
2023-01-21T04:01:03.008Z,0.00
2023-01-21T04:02:02.942Z,0.00
2023-01-21T04:03:02.887Z,0.00
2023-01-21T04:04:02.887Z,0.00
2023-01-21T04:05:03.070Z,0.00
2023-01-21T04:06:02.937Z,0.00
2023-01-21T04:07:03.085Z,0.00
2023-01-21T04:08:03.162Z,0.00
2023-01-21T04:09:03.207Z,0.00
2023-01-21T04:10:03.193Z,0.00
2023-01-21T04:11:02.907Z,0.00
2023-01-21T04:12:02.913Z,0.00
2023-01-21T04:13:03.345Z,0.00
2023-01-21T04:14:03.203Z,0.00
2023-01-21T04:15:05.358Z,0.00
2023-01-21T04:16:03.412Z,0.00
2023-01-21T04:17:02.806Z,0.00
2023-01-21T04:18:03.019Z,0.00
2023-01-21T04:19:02.800Z,0.00
2023-01-21T04:20:03.444Z,0.00
2023-01-21T04:21:03.509Z,0.00
2023-01-21T04:22:02.786Z,0.00
2023-01-21T04:23:03.155Z,0.00
2023-01-21T04:24:03.477Z,0.00
2023-01-21T04:25:03.219Z,0.00
2023-01-21T04:26:03.085Z,0.00
2023-01-21T04:27:02.784Z,0.00
2023-01-21T04:28:03.081Z,0.00
2023-01-21T04:29:03.560Z,0.00
2023-01-21T04:31:28.783Z,0.00
2023-01-21T04:32:28.737Z,0.00
2023-01-21T04:33:28.696Z,0.00
2023-01-21T04:34:28.683Z,0.00
2023-01-21T04:35:28.698Z,0.00
2023-01-21T04:36:28.689Z,0.00
2023-01-21T04:37:28.723Z,0.00
2023-01-21T04:38:28.707Z,0.00
2023-01-21T04:39:28.714Z,0.00
2023-01-21T04:40:28.721Z,0.00
2023-01-21T04:41:28.654Z,0.00
2023-01-21T04:42:28.723Z,0.00
2023-01-21T04:43:28.741Z,0.00
2023-01-21T04:44:28.741Z,0.00
2023-01-21T04:45:28.633Z,0.00
2023-01-21T04:46:28.862Z,0.00
2023-01-21T04:47:28.837Z,0.00
2023-01-21T04:48:28.859Z,0.00
2023-01-21T04:49:28.669Z,0.00
2023-01-21T04:50:28.611Z,0.00
2023-01-21T04:51:28.855Z,0.00
2023-01-21T04:52:28.848Z,0.00
2023-01-21T04:53:30.048Z,0.00
2023-01-21T04:54:28.641Z,0.00
2023-01-21T04:55:29.018Z,0.00
2023-01-21T04:56:28.945Z,0.00
2023-01-21T04:57:28.588Z,0.00
2023-01-21T04:58:29.035Z,0.00
2023-01-21T04:59:29.053Z,0.00
2023-01-21T05:00:29.192Z,0.00
2023-01-21T05:01:29.091Z,0.00
2023-01-21T05:02:28.907Z,0.00
2023-01-21T05:03:28.668Z,0.00
2023-01-21T05:04:29.045Z,0.00
2023-01-21T05:05:29.139Z,0.00
2023-01-21T05:06:28.489Z,0.00
2023-01-21T05:07:29.107Z,0.00
2023-01-21T05:08:28.695Z,0.00
2023-01-21T05:09:29.125Z,0.00
2023-01-21T05:10:28.930Z,0.00
2023-01-21T05:11:28.972Z,0.00
2023-01-21T05:12:28.585Z,0.00
2023-01-21T05:13:29.148Z,0.00
2023-01-21T05:14:29.159Z,0.00
2023-01-21T05:15:29.299Z,0.00
2023-01-21T05:16:28.655Z,0.00
2023-01-21T05:17:28.429Z,0.00
2023-01-21T05:18:28.571Z,0.00
2023-01-21T05:19:28.568Z,0.00
2023-01-21T05:20:28.597Z,0.00
2023-01-21T05:21:28.426Z,0.00
2023-01-21T05:22:28.415Z,0.00
2023-01-21T05:23:28.665Z,0.00
2023-01-21T05:24:28.641Z,0.00
2023-01-21T05:25:28.415Z,0.00
2023-01-21T05:26:28.823Z,0.00
2023-01-21T05:27:28.629Z,0.00
2023-01-21T05:28:28.662Z,0.00
2023-01-21T05:29:28.641Z,0.00
2023-01-21T05:30:28.506Z,0.00
2023-01-21T05:31:28.522Z,0.00
2023-01-21T05:32:28.473Z,0.00
2023-01-21T05:33:28.354Z,0.00
2023-01-21T05:34:28.332Z,0.00
2023-01-21T05:35:28.382Z,0.00
2023-01-21T05:36:28.330Z,0.00
2023-01-21T05:37:28.335Z,0.00
2023-01-21T05:38:28.330Z,0.00
2023-01-21T05:39:28.500Z,0.00
2023-01-21T05:40:28.518Z,0.00
2023-01-21T05:41:28.319Z,0.00
2023-01-21T05:42:28.331Z,0.00
2023-01-21T05:43:28.382Z,0.00
2023-01-21T05:44:28.548Z,0.00
2023-01-21T05:45:28.353Z,0.00
2023-01-21T05:46:28.397Z,0.00
2023-01-21T05:47:28.273Z,0.00
2023-01-21T05:48:28.365Z,0.00
2023-01-21T05:49:28.379Z,0.00
2023-01-21T05:50:28.248Z,0.00
2023-01-21T05:51:28.238Z,0.00
2023-01-21T05:52:28.224Z,0.00
2023-01-21T05:53:28.246Z,0.00
2023-01-21T05:54:28.216Z,0.00
2023-01-21T05:55:28.214Z,0.00
2023-01-21T05:56:28.206Z,0.00
2023-01-21T05:57:28.305Z,0.00
2023-01-21T05:58:28.235Z,0.00
2023-01-21T05:59:28.488Z,0.00
2023-01-21T06:00:28.454Z,0.00
2023-01-21T06:01:28.486Z,0.00
2023-01-21T06:02:28.581Z,0.00
2023-01-21T06:03:28.206Z,0.00
2023-01-21T06:04:28.532Z,0.00
2023-01-21T06:05:28.154Z,0.00
2023-01-21T06:06:28.139Z,0.00
2023-01-21T06:07:28.139Z,0.00
2023-01-21T06:08:28.303Z,0.00
2023-01-21T06:09:28.308Z,0.00
2023-01-21T06:10:28.133Z,0.00
2023-01-21T06:11:28.118Z,0.00
2023-01-21T06:12:28.131Z,0.00
2023-01-21T06:13:28.129Z,0.00
2023-01-21T06:14:28.108Z,0.00
2023-01-21T06:15:28.107Z,0.00
2023-01-21T06:16:28.357Z,0.00
2023-01-21T06:17:28.256Z,0.00
2023-01-21T06:18:28.107Z,0.00
2023-01-21T06:19:28.074Z,0.00
2023-01-21T06:20:28.663Z,0.00
2023-01-21T06:21:28.604Z,0.00
2023-01-21T06:22:28.051Z,0.00
2023-01-21T06:23:28.618Z,0.00
2023-01-21T06:24:28.414Z,0.00
2023-01-21T06:25:28.621Z,0.00
2023-01-21T06:26:28.438Z,0.00
2023-01-21T06:27:28.026Z,0.00
2023-01-21T06:28:28.042Z,0.00
2023-01-21T06:29:28.445Z,0.00
2023-01-21T06:30:28.251Z,0.00
2023-01-21T06:31:28.146Z,0.00
2023-01-21T06:32:28.070Z,0.00
2023-01-21T06:33:28.084Z,0.00
2023-01-21T06:34:28.080Z,0.00
2023-01-21T06:35:28.080Z,0.00
2023-01-21T06:36:28.110Z,0.00
2023-01-21T06:37:28.317Z,0.00
2023-01-21T06:38:28.103Z,0.00
2023-01-21T06:39:28.310Z,0.00
2023-01-21T06:40:28.325Z,0.00
2023-01-21T06:41:28.339Z,0.00
2023-01-21T06:42:27.961Z,0.00
2023-01-21T06:43:28.137Z,0.00
2023-01-21T06:44:28.366Z,0.00
2023-01-21T06:45:27.939Z,0.00
2023-01-21T06:46:28.205Z,0.00
2023-01-21T06:47:27.977Z,0.00
2023-01-21T06:48:28.189Z,0.00
2023-01-21T06:49:28.794Z,0.00
2023-01-21T06:50:28.408Z,0.00
2023-01-21T06:51:28.622Z,0.00
2023-01-21T06:52:27.995Z,0.00
2023-01-21T06:53:28.917Z,0.00
2023-01-21T06:54:30.494Z,0.00
2023-01-21T06:55:28.421Z,0.00
2023-01-21T06:56:28.019Z,0.00
2023-01-21T06:57:28.779Z,0.00
2023-01-21T06:58:28.679Z,0.00
2023-01-21T06:59:28.250Z,0.00
2023-01-21T07:00:27.870Z,0.00
2023-01-21T07:01:28.133Z,0.00
2023-01-21T07:02:28.087Z,0.00
2023-01-21T07:03:28.470Z,0.00
2023-01-21T07:04:28.069Z,0.00
2023-01-21T07:05:28.280Z,0.00
2023-01-21T07:06:28.092Z,0.00
2023-01-21T07:07:28.106Z,0.00
2023-01-21T07:08:28.164Z,0.00
2023-01-21T07:09:27.808Z,0.00
2023-01-21T07:10:27.768Z,0.00
2023-01-21T07:11:27.947Z,0.00
2023-01-21T07:12:27.944Z,0.00
2023-01-21T07:13:27.955Z,0.00
2023-01-21T07:14:27.777Z,0.00
2023-01-21T07:15:27.976Z,0.00
2023-01-21T07:16:28.206Z,0.00
2023-01-21T07:17:27.771Z,0.00
2023-01-21T07:18:28.182Z,0.00
2023-01-21T07:19:27.798Z,0.00
2023-01-21T07:20:27.737Z,0.00
2023-01-21T07:21:28.255Z,0.00
2023-01-21T07:22:27.712Z,0.00
2023-01-21T07:23:27.791Z,0.00
2023-01-21T07:24:28.441Z,0.00
2023-01-21T07:25:28.222Z,0.00
2023-01-21T07:26:28.322Z,0.00
2023-01-21T07:27:27.671Z,0.00
2023-01-21T07:28:28.044Z,0.00
2023-01-21T07:29:28.697Z,0.00
2023-01-21T07:30:27.804Z,5.62
2023-01-21T07:31:27.758Z,5.62
2023-01-21T07:32:27.653Z,5.62
2023-01-21T07:33:28.481Z,5.62
2023-01-21T07:34:27.892Z,5.62
2023-01-21T07:35:28.097Z,5.62
2023-01-21T07:36:27.641Z,5.62
2023-01-21T07:37:27.696Z,5.62
2023-01-21T07:38:27.910Z,5.62
2023-01-21T07:39:28.589Z,5.62
2023-01-21T07:40:28.503Z,5.62
2023-01-21T07:41:27.918Z,5.62
2023-01-21T07:42:28.535Z,5.62
2023-01-21T07:43:27.733Z,5.62
2023-01-21T07:44:27.594Z,5.62
2023-01-21T07:45:27.566Z,5.62
2023-01-21T07:46:27.591Z,11.25
2023-01-21T07:47:27.555Z,11.25
2023-01-21T07:48:27.564Z,11.25
2023-01-21T07:49:27.763Z,11.25
2023-01-21T07:50:27.772Z,11.25
2023-01-21T07:51:27.611Z,11.25
2023-01-21T07:52:27.807Z,11.25
2023-01-21T07:53:27.530Z,11.25
2023-01-21T07:54:27.541Z,16.88
2023-01-21T07:55:27.502Z,16.88
2023-01-21T07:56:27.517Z,16.88
2023-01-21T07:57:27.492Z,16.88
2023-01-21T07:58:27.509Z,16.88
2023-01-21T07:59:27.528Z,16.88
2023-01-21T08:00:27.478Z,16.88
2023-01-21T08:01:27.501Z,16.88
2023-01-21T08:02:27.556Z,16.88
2023-01-21T08:03:27.494Z,16.88
2023-01-21T08:04:27.470Z,16.88
2023-01-21T08:05:27.491Z,16.88
2023-01-21T08:06:27.487Z,22.50
2023-01-21T08:07:27.492Z,16.88
2023-01-21T08:08:27.438Z,22.50
2023-01-21T08:09:27.439Z,16.88
2023-01-21T08:10:27.521Z,22.50
2023-01-21T08:11:27.441Z,22.50
2023-01-21T08:12:27.488Z,22.50
2023-01-21T08:13:27.731Z,22.50
2023-01-21T08:14:27.767Z,22.50
2023-01-21T08:15:27.374Z,22.50
2023-01-21T08:16:27.600Z,28.12
2023-01-21T08:17:27.359Z,28.12
2023-01-21T08:18:27.782Z,28.12
2023-01-21T08:19:27.779Z,28.12
2023-01-21T08:20:27.770Z,28.12
2023-01-21T08:21:27.341Z,33.75
2023-01-21T08:22:27.570Z,33.75
2023-01-21T08:23:27.804Z,39.38
2023-01-21T08:24:27.791Z,39.38
2023-01-21T08:25:27.389Z,39.38
2023-01-21T08:26:27.400Z,39.38
2023-01-21T08:27:27.305Z,45.00
2023-01-21T08:28:27.409Z,45.00
2023-01-21T08:29:27.419Z,45.00
2023-01-21T08:30:27.446Z,39.38
2023-01-21T08:31:27.694Z,45.00
2023-01-21T08:32:27.482Z,45.00
2023-01-21T08:33:27.499Z,45.00
2023-01-21T08:34:27.447Z,50.62
2023-01-21T08:35:27.254Z,50.62
2023-01-21T08:36:27.878Z,50.62
2023-01-21T08:37:27.507Z,50.62
2023-01-21T08:38:27.306Z,50.62
2023-01-21T08:39:27.253Z,50.62
2023-01-21T08:40:27.909Z,50.62
2023-01-21T08:41:27.339Z,56.25
2023-01-21T08:42:27.326Z,56.25
2023-01-21T08:43:27.246Z,56.25
2023-01-21T08:44:27.521Z,56.25
2023-01-21T08:45:27.219Z,56.25
2023-01-21T08:46:27.328Z,56.25
2023-01-21T08:47:27.183Z,56.25
2023-01-21T08:48:27.201Z,61.88
2023-01-21T08:49:27.572Z,56.25
2023-01-21T08:50:27.172Z,61.88
2023-01-21T08:51:27.356Z,61.88
2023-01-21T08:52:27.196Z,61.88
2023-01-21T08:53:28.136Z,61.88
2023-01-21T08:54:27.789Z,61.88
2023-01-21T08:55:27.223Z,61.88
2023-01-21T08:56:28.057Z,61.88
2023-01-21T08:57:27.219Z,61.88
2023-01-21T08:58:27.221Z,61.88
2023-01-21T08:59:27.218Z,56.25
2023-01-21T09:00:27.981Z,56.25
2023-01-21T09:01:27.640Z,56.25
2023-01-21T09:02:27.161Z,56.25
2023-01-21T09:03:27.105Z,61.88
2023-01-21T09:04:27.105Z,61.88
2023-01-21T09:05:27.076Z,61.88
2023-01-21T09:06:27.306Z,61.88
2023-01-21T09:07:27.197Z,61.88
2023-01-21T09:08:27.295Z,56.25
2023-01-21T09:09:27.126Z,61.88
2023-01-21T09:10:27.292Z,61.88
2023-01-21T09:11:27.294Z,67.50
2023-01-21T09:12:27.037Z,67.50
2023-01-21T09:13:29.206Z,67.50
2023-01-21T09:14:27.138Z,73.12
2023-01-21T09:15:27.312Z,73.12
2023-01-21T09:16:27.370Z,73.12
2023-01-21T09:17:27.005Z,73.12
2023-01-21T09:18:27.332Z,78.75
2023-01-21T09:19:27.332Z,78.75
2023-01-21T09:20:27.342Z,73.12
2023-01-21T09:21:27.352Z,73.12
2023-01-21T09:22:27.388Z,73.12
2023-01-21T09:23:26.993Z,73.12
2023-01-21T09:24:26.980Z,73.12
2023-01-21T09:25:27.381Z,78.75
2023-01-21T09:26:27.393Z,78.75
2023-01-21T09:27:27.219Z,90.00
2023-01-21T09:28:26.998Z,90.00
2023-01-21T09:29:27.399Z,101.25
2023-01-21T09:30:27.428Z,146.25
2023-01-21T09:31:27.049Z,168.75
2023-01-21T09:32:27.419Z,180.00
2023-01-21T09:33:27.028Z,180.00
2023-01-21T09:34:27.481Z,180.00
2023-01-21T09:35:26.931Z,180.00
2023-01-21T09:36:26.895Z,185.62
2023-01-21T09:37:26.895Z,185.62
2023-01-21T09:38:27.072Z,185.62
2023-01-21T09:39:27.469Z,185.62
2023-01-21T09:40:27.696Z,196.88
2023-01-21T09:41:27.575Z,202.50
2023-01-21T09:42:26.877Z,202.50
2023-01-21T09:43:26.913Z,208.12
2023-01-21T09:44:26.891Z,213.75
2023-01-21T09:45:26.858Z,208.12
2023-01-21T09:46:26.945Z,208.12
2023-01-21T09:47:27.113Z,196.88
2023-01-21T09:48:27.121Z,185.62
2023-01-21T09:49:26.835Z,185.62
2023-01-21T09:50:27.042Z,185.62
2023-01-21T09:51:26.837Z,185.62
2023-01-21T09:52:27.361Z,191.25
2023-01-21T09:53:27.375Z,191.25
2023-01-21T09:54:27.367Z,185.62
2023-01-21T09:55:27.381Z,180.00
2023-01-21T09:56:26.839Z,180.00
2023-01-21T09:57:26.979Z,174.38
2023-01-21T09:58:26.769Z,174.38
2023-01-21T09:59:27.449Z,168.75
2023-01-21T10:00:27.066Z,163.12
2023-01-21T10:01:27.698Z,157.50
2023-01-21T10:02:26.967Z,157.50
2023-01-21T10:03:27.236Z,157.50
2023-01-21T10:04:26.746Z,157.50
2023-01-21T10:05:27.626Z,151.88
2023-01-21T10:06:26.709Z,151.88
2023-01-21T10:07:26.724Z,146.25
2023-01-21T10:08:26.708Z,146.25
2023-01-21T10:09:26.697Z,146.25
2023-01-21T10:10:26.706Z,146.25
2023-01-21T10:11:26.691Z,140.62
2023-01-21T10:12:26.723Z,140.62
2023-01-21T10:13:26.780Z,151.88
2023-01-21T10:14:26.678Z,157.50
2023-01-21T10:15:26.775Z,151.88
2023-01-21T10:16:26.695Z,151.88
2023-01-21T10:17:26.643Z,146.25
2023-01-21T10:18:28.461Z,151.88
2023-01-21T10:19:26.642Z,151.88
2023-01-21T10:20:26.714Z,157.50
2023-01-21T10:21:26.638Z,151.88
2023-01-21T10:22:26.700Z,151.88
2023-01-21T10:23:26.702Z,146.25
2023-01-21T10:24:26.770Z,135.00
2023-01-21T10:25:26.619Z,140.62
2023-01-21T10:26:26.604Z,140.62
2023-01-21T10:27:26.780Z,146.25
2023-01-21T10:28:26.586Z,151.88
2023-01-21T10:29:26.600Z,151.88
2023-01-21T10:30:26.632Z,157.50
2023-01-21T10:31:27.000Z,163.12
2023-01-21T10:33:53.350Z,168.75
2023-01-21T10:34:52.519Z,163.12
2023-01-21T10:35:52.681Z,163.12
2023-01-21T10:36:52.909Z,163.12
2023-01-21T10:37:52.951Z,151.88
2023-01-21T10:38:53.327Z,140.62
2023-01-21T10:39:52.719Z,140.62
2023-01-21T10:40:52.721Z,140.62
2023-01-21T10:41:53.348Z,140.62
2023-01-21T10:42:53.354Z,140.62
2023-01-21T10:43:52.576Z,135.00
2023-01-21T10:44:52.793Z,135.00
2023-01-21T10:45:52.637Z,135.00
2023-01-21T10:46:52.579Z,146.25
2023-01-21T10:47:52.559Z,146.25
2023-01-21T10:48:52.788Z,140.62
2023-01-21T10:49:52.620Z,140.62
2023-01-21T10:50:52.663Z,135.00
2023-01-21T10:51:52.406Z,135.00
2023-01-21T10:52:52.426Z,135.00
2023-01-21T10:53:52.428Z,140.62
2023-01-21T10:54:52.618Z,140.62
2023-01-21T10:55:52.586Z,135.00
2023-01-21T10:56:52.834Z,129.38
2023-01-21T10:57:52.355Z,129.38
2023-01-21T10:58:52.494Z,129.38
2023-01-21T10:59:52.367Z,140.62
2023-01-21T11:00:52.356Z,140.62
2023-01-21T11:01:53.793Z,140.62
2023-01-21T11:02:52.399Z,140.62
2023-01-21T11:03:52.312Z,146.25
2023-01-21T11:04:52.313Z,151.88
2023-01-21T11:05:52.311Z,157.50
2023-01-21T11:06:52.363Z,146.25
2023-01-21T11:07:52.312Z,146.25
2023-01-21T11:08:52.337Z,146.25
2023-01-21T11:09:52.311Z,140.62
2023-01-21T11:10:52.282Z,146.25
2023-01-21T11:11:52.252Z,157.50
2023-01-21T11:12:52.260Z,168.75
2023-01-21T11:13:52.370Z,180.00
2023-01-21T11:14:52.581Z,174.38
2023-01-21T11:15:52.290Z,157.50
2023-01-21T11:16:52.268Z,146.25
2023-01-21T11:17:52.380Z,151.88
2023-01-21T11:18:52.618Z,151.88
2023-01-21T11:19:52.209Z,151.88
2023-01-21T11:20:52.222Z,151.88
2023-01-21T11:21:52.196Z,157.50
2023-01-21T11:22:52.391Z,174.38
2023-01-21T11:23:52.624Z,180.00
2023-01-21T11:24:52.237Z,168.75
2023-01-21T11:25:52.653Z,163.12
2023-01-21T11:26:52.434Z,163.12
2023-01-21T11:27:52.164Z,163.12
2023-01-21T11:28:52.651Z,163.12
2023-01-21T11:29:52.465Z,151.88
2023-01-21T11:30:52.518Z,157.50
2023-01-21T11:31:52.817Z,168.75
2023-01-21T11:32:52.691Z,163.12
2023-01-21T11:33:52.114Z,157.50
2023-01-21T11:34:52.699Z,151.88
2023-01-21T11:35:52.113Z,151.88
2023-01-21T11:36:52.143Z,146.25
2023-01-21T11:37:52.103Z,146.25
2023-01-21T11:38:52.111Z,151.88
2023-01-21T11:39:52.320Z,157.50
2023-01-21T11:40:52.110Z,157.50
2023-01-21T11:41:52.165Z,151.88
2023-01-21T11:42:52.341Z,140.62
2023-01-21T11:43:52.348Z,135.00
2023-01-21T11:44:52.570Z,129.38
2023-01-21T11:45:52.615Z,123.75
2023-01-21T11:46:52.110Z,118.12
2023-01-21T11:47:52.381Z,118.12
2023-01-21T11:48:52.173Z,118.12
2023-01-21T11:49:52.019Z,118.12
2023-01-21T11:50:52.342Z,118.12
2023-01-21T11:51:52.199Z,123.75
2023-01-21T11:52:52.008Z,123.75
2023-01-21T11:53:52.318Z,123.75
2023-01-21T11:54:52.226Z,112.50
2023-01-21T11:55:52.047Z,112.50
2023-01-21T11:56:52.638Z,118.12
2023-01-21T11:57:52.050Z,118.12
2023-01-21T11:58:52.296Z,129.38
2023-01-21T11:59:52.789Z,140.62
2023-01-21T12:00:52.485Z,146.25
2023-01-21T12:01:52.488Z,163.12
2023-01-21T12:02:53.092Z,163.12
2023-01-21T12:03:52.959Z,163.12
2023-01-21T12:04:52.291Z,157.50
2023-01-21T12:05:51.915Z,146.25
2023-01-21T12:06:52.934Z,146.25
2023-01-21T12:07:52.306Z,157.50
2023-01-21T12:08:52.748Z,191.25
2023-01-21T12:09:52.113Z,219.38
2023-01-21T12:10:52.165Z,219.38
2023-01-21T12:11:52.134Z,208.12
2023-01-21T12:12:51.952Z,196.88
2023-01-21T12:13:51.945Z,180.00
2023-01-21T12:14:51.953Z,174.38
2023-01-21T12:15:52.030Z,168.75
2023-01-21T12:16:51.961Z,174.38
2023-01-21T12:17:52.200Z,168.75
2023-01-21T12:18:52.179Z,151.88
2023-01-21T12:19:51.990Z,140.62
2023-01-21T12:20:52.229Z,140.62
2023-01-21T12:21:52.207Z,129.38
2023-01-21T12:22:52.418Z,118.12
2023-01-21T12:23:51.850Z,123.75
2023-01-21T12:24:51.809Z,129.38
2023-01-21T12:25:51.813Z,129.38
2023-01-21T12:26:52.468Z,135.00
2023-01-21T12:27:52.062Z,140.62
2023-01-21T12:28:52.668Z,146.25
2023-01-21T12:29:52.050Z,146.25
2023-01-21T12:30:52.125Z,106.88
2023-01-21T12:31:52.393Z,106.88
2023-01-21T12:32:52.481Z,112.50
2023-01-21T12:33:52.521Z,112.50
2023-01-21T12:34:52.713Z,106.88
2023-01-21T12:35:52.115Z,90.00
2023-01-21T12:36:51.746Z,78.75
2023-01-21T12:37:51.927Z,112.50
2023-01-21T12:38:51.718Z,118.12
2023-01-21T12:39:51.714Z,123.75
2023-01-21T12:40:52.351Z,112.50
2023-01-21T12:41:51.948Z,123.75
2023-01-21T12:42:51.943Z,146.25
2023-01-21T12:43:51.974Z,151.88
2023-01-21T12:44:51.981Z,163.12
2023-01-21T12:45:51.967Z,157.50
2023-01-21T12:46:52.010Z,151.88
2023-01-21T12:47:51.752Z,140.62
2023-01-21T12:48:51.832Z,140.62
2023-01-21T12:49:52.600Z,151.88
2023-01-21T12:50:51.677Z,163.12
2023-01-21T12:51:51.651Z,168.75
2023-01-21T12:52:51.643Z,151.88
2023-01-21T12:53:51.801Z,151.88
2023-01-21T12:54:51.642Z,157.50
2023-01-21T12:55:51.611Z,174.38
2023-01-21T12:56:51.821Z,168.75
2023-01-21T12:57:51.642Z,174.38
2023-01-21T12:58:51.883Z,180.00
2023-01-21T12:59:51.642Z,191.25
2023-01-21T13:00:51.697Z,196.88
2023-01-21T13:01:51.917Z,196.88
2023-01-21T13:02:51.657Z,202.50